Latest Weather Observations for Double Island Point

IDQ60801

Issued at 9:35 am EST Wednesday 3 September 2014 (issued every 30 minutes, with the page automatically refreshed every 10 minutes)

About weather observations | Map of weather stations | Latest weather observations for QLD | Other Formats
Station Details ID: 040068 Name: DOUBLE ISLAND POINT LIGHTHOUSE Lat: -25.93 Lon: 153.19 Height: 95.64 m
Data from the previous 72 hours. | See also: Recent months at Double Island Point
Date/Time
EST
Temp
°C
App
Temp
°C
Dew
Point
Rel
Hum
%
Delta-T
°C
Wind Press
QNH
hPa
Press
MSL
hPa
Rain
since 9 am
mm
Dir
 
Spd
km/h
Gust
km/h
Spd
kts
Gust
kts
03/09:30am 15.9 6.8 -0.3 33 6.9 SW 37 52 20 28 1014.1 1013.8 0.0
03/09:12am 15.6 7.5 -0.2 34 6.7 WSW 32 52 17 28 1014.2 1013.9 0.0
03/09:00am 15.4 7.3 0.8 37 6.3 WSW 33 48 18 26 1014.5 1014.2 0.0
03/08:30am 14.7 7.3 1.6 41 5.7 WSW 30 50 16 27 1014.7 1014.4 0.0
03/08:13am 14.2 7.1 1.5 42 5.5 SW 28 48 15 26 1014.8 1014.5 0.0
03/08:00am 14.1 8.4 2.7 46 5.1 WSW 22 30 12 16 1014.8 1014.5 0.0
03/07:30am 13.4 7.9 2.0 46 5.0 SW 20 30 11 16 1014.9 1014.6 0.0
03/07:00am 12.6 7.1 1.9 48 4.6 SW 20 32 11 17 1014.6 1014.3 0.0
03/06:30am 12.1 7.1 1.4 48 4.6 SW 17 24 9 13 1014.4 1014.1 0.0
03/06:00am 12.1 7.5 1.4 48 4.6 WSW 15 20 8 11 1014.1 1013.8 0.0
03/05:30am 12.6 9.1 1.0 45 4.9 SW 9 15 5 8 1014.0 1013.7 0.0
03/05:00am 13.0 8.6 0.4 42 5.3 SW 13 20 7 11 1013.5 1013.2 0.0
03/04:30am 13.2 7.7 0.3 41 5.4 SSW 19 28 10 15 1013.0 1012.8 0.0
03/04:00am 13.1 7.9 0.2 41 5.4 SSW 17 22 9 12 1012.8 1012.6 0.0
03/03:30am 13.6 8.8 -0.1 39 5.7 SSW 15 20 8 11 1013.0 1012.8 0.0
03/03:00am 13.9 8.7 -0.2 38 5.9 SSW 17 20 9 11 1013.1 1012.9 0.0
03/02:30am 14.2 8.4 0.1 38 6.0 SW 20 26 11 14 1013.1 1012.9 0.0
03/02:00am 14.8 9.7 0.6 38 6.1 SW 17 24 9 13 1013.5 1013.2 0.0
03/01:30am 15.4 9.7 0.4 36 6.4 SSW 20 30 11 16 1013.3 1013.1 0.0
03/01:00am 15.8 8.5 0.0 34 6.8 SSW 28 33 15 18 1013.2 1013.0 0.0
03/12:30am 16.3 9.8 0.4 34 6.9 SSW 24 32 13 17 1013.3 1013.1 0.0
03/12:00am 16.5 11.0 1.8 37 6.6 SW 20 26 11 14 1013.2 1013.0 0.0
 
Date/Time
EST
Temp
°C
App
Temp
°C
Dew
Point
Rel
Hum
%
Delta-T
°C
Wind Press
QNH
hPa
Press
MSL
hPa
Rain
since 9 am
mm
Dir
 
Spd
km/h
Gust
km/h
Spd
kts
Gust
kts
02/11:30pm 17.3 11.0 1.3 34 7.1 SSW 24 35 13 19 1013.1 1012.9 0.0
02/11:00pm 17.6 12.4 3.5 39 6.6 S 20 32 11 17 1013.0 1012.8 0.0
02/10:30pm 18.4 12.2 2.3 34 7.4 SW 24 43 13 23 1012.7 1012.5 0.0
02/10:00pm 19.0 12.7 4.0 37 7.2 SW 26 41 14 22 1012.5 1012.3 0.0
02/09:42pm 19.4 13.2 6.2 42 6.6 WSW 28 39 15 21 1012.3 1012.1 0.0
02/09:30pm 18.2 16.8 12.2 68 3.3 NW 11 17 6 9 1012.3 1012.1 0.0
02/09:00pm 18.2 16.6 12.9 71 3.0 NW 13 17 7 9 1011.9 1011.6 0.0
02/08:30pm 18.3 16.0 13.0 71 3.0 NW 17 20 9 11 1011.7 1011.4 0.0
02/08:00pm 18.6 15.9 13.0 70 3.2 WNW 19 22 10 12 1011.5 1011.2 0.0
02/07:30pm 19.1 15.5 13.1 68 3.4 WNW 24 33 13 18 1011.0 1010.7 0.0
02/07:00pm 19.5 14.9 12.3 63 4.0 NW 28 35 15 19 1010.8 1010.5 0.0
02/06:30pm 19.4 15.1 13.3 68 3.5 NNW 28 39 15 21 1009.9 1009.6 0.0
02/06:00pm 19.7 16.0 12.7 64 4.0 NNW 24 37 13 20 1009.3 1009.0 0.0
02/05:30pm 20.0 16.9 12.3 61 4.3 N 20 30 11 16 1008.9 1008.6 0.0
02/05:00pm 20.6 16.0 12.3 59 4.7 NNW 28 39 15 21 1008.9 1008.6 0.0
02/04:30pm 21.0 17.6 12.4 58 4.9 N 22 37 12 20 1008.9 1008.6 0.0
02/04:00pm 21.6 18.5 12.2 55 5.3 N 20 28 11 15 1008.8 1008.5 0.0
02/03:30pm 22.1 18.7 12.4 54 5.5 N 22 28 12 15 1008.9 1008.6 0.0
02/03:04pm 22.2 17.6 12.2 53 5.7 N 28 46 15 25 1009.1 1008.8 0.0
02/03:00pm 22.3 17.0 12.5 53 5.6 NNW 32 46 17 25 1009.1 1008.8 0.0
02/02:30pm 23.0 20.1 14.0 57 5.3 N 22 32 12 17 1009.2 1008.9 0.0
02/02:00pm 22.8 20.4 14.4 59 5.0 N 20 35 11 19 1009.8 1009.5 0.0
02/01:30pm 22.5 20.0 14.1 59 4.9 N 20 32 11 17 1010.3 1010.0 0.0
02/01:00pm 23.3 19.9 13.8 55 5.6 NNW 24 32 13 17 1011.0 1010.7 0.0
02/12:30pm 25.6 24.1 16.7 58 5.5 NNW 20 32 11 17 1011.8 1011.5 0.0
02/12:00pm 24.7 23.6 16.4 60 5.1 N 17 26 9 14 1012.5 1012.3 0.0
02/11:30am 23.0 18.7 15.3 62 4.6 NNW 32 37 17 20 1013.0 1012.8 0.0
02/11:00am 21.1 15.8 15.2 69 3.5 NNW 37 44 20 24 1013.6 1013.3 0.0
02/10:30am 20.2 14.6 15.4 74 2.9 NNW 39 48 21 26 1014.5 1014.2 0.0
02/10:00am 19.5 15.2 16.0 80 2.1 NW 33 44 18 24 1015.1 1014.8 0.0
02/09:30am 18.6 14.1 15.5 82 1.8 NW 33 41 18 22 1015.2 1014.9 0.0
02/09:00am 18.5 14.2 15.9 85 1.5 NW 33 46 18 25 1015.6 1015.3 0.0
02/08:30am 17.6 13.4 15.6 88 1.2 NW 32 41 17 22 1015.7 1015.4 0.0
02/08:00am 17.2 12.3 15.4 89 1.1 NW 35 46 19 25 1015.7 1015.4 0.0
02/07:30am 16.7 11.5 15.6 93 0.6 NW 37 48 20 26 1015.5 1015.2 0.0
02/07:00am 16.4 11.9 15.3 93 0.6 NW 33 43 18 23 1015.4 1015.1 0.0
02/06:30am 16.4 12.4 15.3 93 0.6 NW 30 39 16 21 1015.7 1015.4 0.0
02/06:00am 16.1 12.4 15.0 93 0.6 NW 28 35 15 19 1015.6 1015.3 0.0
02/05:30am 15.8 12.0 14.7 93 0.6 NW 28 35 15 19 1015.3 1015.0 0.0
02/05:00am 15.7 11.8 14.4 92 0.7 NW 28 33 15 18 1015.3 1015.0 0.0
02/04:30am 16.2 12.4 14.7 91 0.9 NW 28 32 15 17 1015.2 1014.9 0.0
02/04:00am 16.8 13.5 15.0 89 1.0 NW 26 30 14 16 1015.3 1015.0 0.0
02/03:30am 17.3 14.1 15.3 88 1.2 NNW 26 32 14 17 1015.2 1014.9 0.0
02/03:00am 17.2 13.5 15.0 87 1.3 NNW 28 33 15 18 1015.3 1015.0 0.0
02/02:30am 17.2 13.2 15.2 88 1.2 NNW 30 35 16 19 1015.6 1015.3 0.0
02/02:00am 17.3 12.9 15.1 87 1.3 NNW 32 35 17 19 1015.7 1015.4 0.0
02/01:30am 17.5 13.5 15.1 86 1.4 NNW 30 35 16 19 1016.2 1015.9 0.0
02/01:00am 17.4 12.9 14.9 85 1.5 NNW 32 37 17 20 1016.2 1015.9 0.0
02/12:30am 17.5 13.0 15.0 85 1.5 NNW 32 39 17 21 1016.7 1016.4 0.0
02/12:00am 17.7 13.2 14.8 83 1.7 NNW 32 39 17 21 1016.8 1016.5 0.0
 
Date/Time
EST
Temp
°C
App
Temp
°C
Dew
Point
Rel
Hum
%
Delta-T
°C
Wind Press
QNH
hPa
Press
MSL
hPa
Rain
since 9 am
mm
Dir
 
Spd
km/h
Gust
km/h
Spd
kts
Gust
kts
01/11:30pm 17.5 13.2 14.4 82 1.8 NNW 30 35 16 19 1016.8 1016.5 0.0
01/11:00pm 17.4 13.2 13.5 78 2.2 NNW 28 33 15 18 1016.9 1016.6 0.0
01/10:30pm 17.5 13.0 13.8 79 2.1 NNW 30 35 16 19 1017.1 1016.8 0.0
01/10:00pm 17.9 14.1 14.8 82 1.8 NNW 28 35 15 19 1017.3 1017.0 0.0
01/09:30pm 18.1 16.5 15.0 82 1.8 N 17 24 9 13 1017.3 1017.0 0.0
01/09:00pm 18.3 17.5 15.0 81 1.9 N 13 20 7 11 1017.5 1017.2 0.0
01/08:30pm 18.2 16.7 14.3 78 2.3 N 15 22 8 12 1017.5 1017.2 0.0
01/08:00pm 18.6 17.0 15.1 80 2.1 N 17 24 9 13 1017.3 1017.0 0.0
01/07:30pm 19.0 18.7 15.5 80 2.1 N 11 17 6 9 1017.4 1017.1 0.0
01/07:00pm 19.0 17.9 15.3 79 2.2 N 15 22 8 12 1017.2 1016.9 0.0
01/06:30pm 19.0 17.1 15.3 79 2.2 N 19 30 10 16 1016.8 1016.5 0.0
01/06:00pm 19.1 16.6 15.2 78 2.3 N 22 35 12 19 1016.7 1016.4 0.0
01/05:30pm 19.5 15.5 15.2 76 2.5 N 30 39 16 21 1016.3 1016.0 0.0
01/05:00pm 20.4 16.0 15.2 72 3.1 N 32 39 17 21 1016.1 1015.8 0.0
01/04:30pm 20.8 16.0 14.5 67 3.7 N 33 41 18 22 1016.0 1015.7 0.0
01/04:00pm 21.4 16.8 14.6 65 4.0 N 32 39 17 21 1015.9 1015.6 0.0
01/03:30pm 21.8 17.0 14.7 64 4.2 N 33 39 18 21 1015.8 1015.5 0.0
01/03:00pm 22.7 19.9 15.3 63 4.4 NNE 24 30 13 16 1016.1 1015.8 0.0
01/02:30pm 22.9 21.0 15.2 62 4.6 N 19 24 10 13 1016.5 1016.2 0.0
01/02:00pm 23.2 22.4 15.0 60 4.9 N 13 20 7 11 1016.6 1016.3 0.0
01/01:30pm 23.9 23.4 14.9 57 5.4 N 11 19 6 10 1017.3 1017.0 0.0
01/01:00pm 23.4 22.9 14.9 59 5.1 N 11 20 6 11 1017.4 1017.1 0.0
01/12:30pm 23.2 21.3 15.3 61 4.7 N 19 22 10 12 1017.6 1017.3 0.0
01/12:00pm 23.3 21.6 14.6 58 5.2 NNE 17 20 9 11 1017.9 1017.6 0.0
01/11:30am 24.5 25.1 15.7 58 5.3 N 7 11 4 6 1018.5 1018.2 0.0
01/11:00am 23.2 23.0 14.7 58 5.0 N 9 15 5 8 1019.2 1018.9 0.0
01/10:30am 22.2 21.2 14.6 62 4.5 N 13 17 7 9 1019.8 1019.5 0.0
01/10:00am 21.5 20.3 13.9 62 4.4 N 13 17 7 9 1020.0 1019.7 0.0
01/09:30am 21.3 20.9 14.2 64 4.2 N 9 15 5 8 1020.1 1019.9 0.0
01/09:00am 19.7 18.3 13.4 67 3.6 NW 13 17 7 9 1020.2 1020.0 0.0
01/08:30am 19.1 18.1 13.3 69 3.3 WNW 11 13 6 7 1019.9 1019.7 0.0
01/08:00am 19.1 19.1 13.5 70 3.2 NNW 6 9 3 5 1019.6 1019.4 0.0
01/07:30am 18.1 17.4 13.2 73 2.8 WNW 9 11 5 6 1019.3 1019.1 0.0
01/07:00am 17.6 16.4 12.9 74 2.6 WNW 11 13 6 7 1019.1 1018.9 0.0
01/06:30am 17.2 15.7 13.1 77 2.3 WNW 13 15 7 8 1018.8 1018.6 0.0
01/06:00am 17.0 15.1 13.1 78 2.2 W 15 17 8 9 1018.8 1018.6 0.0
01/05:30am 17.0 15.9 13.1 78 2.2 WNW 11 13 6 7 1018.4 1018.2 0.0
01/05:00am 17.2 16.1 13.1 77 2.3 W 11 13 6 7 1018.2 1018.0 0.0
01/04:30am 17.1 16.0 13.0 77 2.3 W 11 13 6 7 1018.0 1017.8 0.0
01/04:00am 17.1 16.0 13.2 78 2.2 W 11 13 6 7 1018.1 1017.9 0.0
01/03:30am 17.3 16.4 13.6 79 2.1 W 11 13 6 7 1018.0 1017.8 0.0
01/03:00am 17.0 15.7 13.7 81 1.9 W 13 15 7 8 1017.9 1017.7 0.0
01/02:30am 17.4 16.9 13.7 79 2.1 W 9 13 5 7 1017.9 1017.7 0.0
01/02:00am 17.3 16.1 14.0 81 1.9 W 13 15 7 8 1018.1 1017.9 0.0
01/01:30am 17.1 16.4 14.2 83 1.7 WNW 11 13 6 7 1018.2 1018.0 0.0
01/01:00am 17.1 15.8 14.7 86 1.4 WNW 15 17 8 9 1018.4 1018.2 0.0
01/12:30am 17.7 17.6 14.0 79 2.1 ENE 7 9 4 5 1018.5 1018.3 0.0
01/12:00am 17.7 17.7 14.2 80 2.0 E 7 11 4 6 1018.7 1018.5 0.0
 
Date/Time
EST
Temp
°C
App
Temp
°C
Dew
Point
Rel
Hum
%
Delta-T
°C
Wind Press
QNH
hPa
Press
MSL
hPa
Rain
since 9 am
mm
Dir
 
Spd
km/h
Gust
km/h
Spd
kts
Gust
kts
31/11:30pm 17.8 17.8 14.3 80 2.0 ESE 7 11 4 6 1018.8 1018.6 0.0
31/11:00pm 17.7 17.3 14.2 80 2.0 ESE 9 11 5 6 1018.8 1018.6 0.0
31/10:30pm 17.6 17.0 13.5 77 2.3 E 9 9 5 5 1018.9 1018.7 0.0
31/10:00pm 18.1 17.6 13.8 76 2.5 E 9 11 5 6 1018.8 1018.6 0.0
31/09:30pm 18.3 17.5 14.0 76 2.5 ENE 11 13 6 7 1018.8 1018.6 0.0
31/09:00pm 18.2 16.9 13.7 75 2.6 NE 13 17 7 9 1018.6 1018.4 0.0
31/08:30pm 18.4 16.7 13.7 74 2.7 ENE 15 19 8 10 1018.5 1018.3 0.0
31/08:00pm 18.5 16.4 13.6 73 2.8 ENE 17 20 9 11 1018.3 1018.1 0.0
31/07:30pm 18.5 16.2 13.1 71 3.1 ENE 17 19 9 10 1018.2 1018.0 0.0
31/07:00pm 18.4 16.1 13.0 71 3.0 E 17 19 9 10 1017.9 1017.7 0.0
31/06:30pm 18.2 15.6 13.1 72 2.9 E 19 20 10 11 1017.4 1017.2 0.0
31/06:00pm 18.1 15.4 13.0 72 2.9 E 19 20 10 11 1017.1 1016.9 0.0
31/05:30pm 18.5 15.7 12.7 69 3.3 E 19 20 10 11 1016.9 1016.7 0.0
31/05:00pm 19.2 16.9 12.9 67 3.6 E 17 19 9 10 1016.7 1016.5 0.0
31/04:30pm 19.7 17.3 12.7 64 4.0 E 17 20 9 11 1016.5 1016.3 0.0
31/04:00pm 20.0 17.2 12.7 63 4.1 E 19 20 10 11 1016.2 1016.0 0.0
31/03:30pm 20.3 18.0 13.0 63 4.2 ENE 17 20 9 11 1016.2 1016.0 0.0
31/03:00pm 20.8 18.8 12.8 60 4.5 E 15 19 8 10 1016.3 1016.1 0.0
31/02:30pm 21.0 18.8 13.2 61 4.5 E 17 20 9 11 1016.3 1016.1 0.0
31/02:00pm 21.2 18.9 12.9 59 4.7 E 17 19 9 10 1016.5 1016.3 0.0
31/01:30pm 21.8 19.8 12.6 56 5.2 E 15 17 8 9 1016.6 1016.4 0.0
31/01:00pm 21.1 19.0 11.2 53 5.5 E 13 17 7 9 1016.9 1016.7 0.0
31/12:30pm 21.5 19.6 10.6 50 6.0 ENE 11 13 6 7 1017.2 1017.0 0.0
31/12:00pm 23.2 22.3 12.5 51 6.1 NE 9 11 5 6 1017.7 1017.5 0.0
31/11:30am 23.3 22.6 12.0 49 6.4 NNE 7 9 4 5 1018.2 1018.0 0.0
31/11:00am 21.8 20.3 10.6 49 6.1 ENE 9 11 5 6 1018.4 1018.2 0.0
31/10:30am 21.5 19.9 10.3 49 6.1 E 9 11 5 6 1018.7 1018.5 0.0
31/10:00am 21.2 19.9 10.1 49 6.0 E 7 11 4 6 1019.0 1018.8 0.0

Other Formats:

Comma delimited format used in spreadsheet applications
http://www.bom.gov.au/fwo/IDQ60801/IDQ60801.94584.axf

JavaScript Object Notation format (JSON) in row-major order
http://www.bom.gov.au/fwo/IDQ60801/IDQ60801.94584.json